Accueil
METAR-TAF:

METAR-TAF

Aéroports :

Aéroport international de Maroua Salak

Maroua, Cameroun

latitude: 10-27N, longitude: 014-15E, altitude: 423 m

Observation

Le bulletin a été fait il y a 1 heure et 6 minutes, à 11:00 UTC
Vent 8 kt de direction variable
Température 30°C
Humidité 19%
Pression 1015 hPa
Visibilité: 3200 m
poussière généralisée

METAR: FKKL 201100Z VRB08KT 3200 DU NSC 30/04 Q1015

Heure: 13:06 (12:06 UTC)

Prévision

Le bulletin a été fait il y a 7 heures et 6 minutes, à 05:00 UTC
Prévision valable du 20 à 06 UTC au 20 à 18 UTC
Vent 8 kt de direction variable
Visibilité: 2000 m
poussière généralisée

TAF: FKKL 200500Z 2006/2018 VRB08KT 2000 DU NSC

Observations et prévisions météorologiques de plus de 4000 aéroports (messages METAR et TAF).

Les stations disponibles sont représentées par des disques jaunes et rouges sur la carte.

Passer la souris dessus pour voir le nom de la station.

Cliquer dessus pour voir les observations et prévisions météorologiques.

Pour changer de carte: cliquez sur les boutons verts avec une croix noire pour zoomer, sur le bouton vert avec un tiret pour effectuer un zoom arrière, ou sur les flèches vertes pour les cartes adjacentes.


METAR-TAF: